Manhattan, MT (59741)

8:22 AM MST on February 09, 2016 (GMT -0700)
Bridgewater Ranch, West Stagecoach Trail, Amsterdam, Montana | | Change Station
CLOSE
Current Station
Personal Weather Station
Location: Manhattan, MT
Elevation: 4450 ft
Nearby Weather Stations

Elev 4450 ft 45.79 °N, 111.36 °W | Updated 6 seconds ago

Clear
Clear
22.2 °F
Feels Like 22 °F
N
2.0
Wind Variable Wind from NW
Gusts 6.0 mph

Today
High -- | Low -- °F
--% Chance of Precip.
Yesterday
High -- | Low -- °F
Precip. -- in
Pressure 30.61 in
Visibility 9.0 miles
Clouds Clear
Windchill 22 °F
Dew Point 22 °F
Humidity 100%
Rainfall 0.00 in
Snow Depth Not available.
7:37 AM 5:42 PM
New Moon, 1% visible
METAR KBZN 091456Z 20004KT 9SM CLR M07/M08 A3046 RMK AO2 SLP366 I1000 I3000 T10671078 50000
Pressure 30.61 in
Visibility 9.0 miles
Clouds Clear
Windchill 22 °F
Dew Point 22 °F
Humidity 100%
Rainfall 0.00 in
Snow Depth Not available.
7:37 AM 5:42 PM
New Moon, 1% visible
METAR KBZN 091456Z 20004KT 9SM CLR M07/M08 A3046 RMK AO2 SLP366 I1000 I3000 T10671078 50000

10-Day Weather Forecast

Almanac

Astronomy

Feb. 09, 2016 Rise Set
Actual Time
Civil Twilight
Nautical Twilight
Astronomical Twilight
Moon
Length of Visible Light
Length of Day
Tomorrow will be .
, % of the Moon is Illuminated

Today's Extremes

State Highs State Lows

Community

WunderPhotos

Upload Photos

1,891,619 photos uploaded!

WunderBlog® & News

Nearby

Air Quality

  Air Quality AQ Index Pollutant
Not available.

Snow Depth

Station Depth Elevation

Earthquake Activity

City Distance Mag. Time & Date
Minimum magnitude displayed is 2.5.

Coastal Water Temperatures

Place Temperature

Stations

Nearby Weather Stations

Station Location Temp. Windchill Dew Point Humidity Wind Precip. Elev Updated Type
                   

Watches & Warnings

There are currently no watches in effect.